• Join FlightAware (Why Join?)
  • Login
  • US Flag 
10:04AM EDT


 

Airport Tracker/Info


-or-


 

Live Flight TrackerFlight Track Log ✈ N600GD ✈ 12-Jul-2013 ✈ KISP - KTAN

Flight Track Log - Related Links

Times and Time Zones

All times are in EDT time to prevent confusion due to time zone crossing. See the N600GD flight status page for this flight to view local times or setup timezone preferences in your user account.

Time Position Orientation Groundspeed Altitude Reporting Facility
EDT Latitude Longitude Course Direction KTS MPH feet Rate Location/Type
07:20PM 40.8167 -73.0833 90° East 92 106 900  Level New York TRACON
07:21PM 40.8167 -73.0500 90° East 89 102 1,700 780 Climbing New York TRACON
07:22PM 40.8167 -73.0167 90° East 92 106 2,500 780 Climbing New York TRACON
07:23PM 40.8167 -73.0000 90° East 88 101 3,200 720 Climbing New York TRACON
07:24PM 40.8333 -72.9667 57° Northeast 85 98 3,900 600 Climbing New York TRACON
07:25PM 40.8333 -72.9333 90° East 95 109 4,400 480 Climbing New York TRACON
07:26PM 40.8333 -72.9000 90° East 104 120 4,900 480 Climbing New York TRACON
07:27PM 40.8500 -72.8500 66° East 109 125 5,400 480 Climbing New York TRACON
07:28PM 40.8500 -72.8167 90° East 107 123 5,900 540 Climbing New York TRACON
07:29PM 40.8500 -72.7833 90° East 101 116 6,500 540 Climbing New York TRACON
07:30PM 40.8667 -72.7500 57° Northeast 103 119 7,000 240 Climbing New York TRACON
07:31PM 40.8667 -72.7000 90° East 132 152 7,000  Level New York TRACON
07:32PM 40.8667 -72.6500 90° East 148 170 7,000  Level New York TRACON
07:33PM 40.8833 -72.6000 66° East 148 170 7,000  Level New York TRACON
07:34PM 40.8833 -72.5500 90° East 145 167 7,000  Level New York TRACON
07:35PM 40.9000 -72.4833 72° East 145 167 7,000  Level New York TRACON
07:36PM 40.9000 -72.4333 90° East 149 171 7,000  Level New York TRACON
07:37PM 40.9167 -72.3833 66° East 147 169 7,000  Level New York TRACON
07:39PM 40.9353 -72.3056 72° East 159 183 7,100  Climbing Boston Center
07:40PM 40.9706 -72.2642 42° Northeast 179 206 7,100  Level Boston Center
07:41PM 41.0144 -72.2200 37° Northeast 158 182 7,100  Level Boston Center
07:42PM 41.0475 -72.1814 41° Northeast 162 186 7,100  Level Boston Center
07:43PM 41.0808 -72.1456 39° Northeast 158 182 7,100 -300 Level Boston Center
07:44PM 41.1119 -72.1122 39° Northeast 164 189 6,600 -600 Descending Boston Center
07:45PM 41.1578 -72.0625 39° Northeast 173 199 6,000 -600 Descending Boston Center
07:46PM 41.1950 -72.0208 40° Northeast 171 197 5,400 -540 Descending Boston Center
07:47PM 41.2283 -71.9819 41° Northeast 166 191 5,000 -240 Descending Boston Center
07:48PM 41.2614 -71.9458 39° Northeast 152 175 5,000  Level Boston Center
07:50PM 41.3297 -71.8706 40° Northeast 149 171 5,000  Level Boston Center
07:51PM 41.3567 -71.8317 47° Northeast 149 171 5,000  Level Boston Center
07:52PM 41.3836 -71.7928 47° Northeast 148 170 5,000  Level Boston Center
07:53PM 41.4106 -71.7508 49° Northeast 142 163 5,000  Level Boston Center
07:54PM 41.4311 -71.7147 53° Northeast 142 163 5,000  Level Boston Center
07:55PM 41.4578 -71.6728 50° Northeast 142 163 5,000  Level Boston Center
07:56PM 41.4847 -71.6336 47° Northeast 143 165 5,000  Level Boston Center
07:57PM 41.5094 -71.5975 48° Northeast 143 165 5,000  Level Boston Center
07:58PM 41.5342 -71.5583 50° Northeast 144 166 5,000  Level Boston Center
07:59PM 41.5608 -71.5161 50° Northeast 143 165 5,000  Level Boston Center
08:00PM 41.5856 -71.4769 50° Northeast 140 161 5,000  Level Boston Center
08:01PM 41.6122 -71.4350 50° Northeast 140 161 5,000 -180 Level Boston Center
08:02PM 41.6389 -71.3928 50° Northeast 140 161 4,700 -480 Descending Boston Center
08:03PM 41.6636 -71.3508 52° Northeast 145 167 4,100 -660 Descending Boston Center
08:04PM 41.6903 -71.3114 48° Northeast 146 168 3,500 -600 Descending Boston Center
08:05PM 41.7169 -71.2692 50° Northeast 141 162 3,000 -240 Descending Boston Center
08:06PM 41.7394 -71.2356 48° Northeast 110 127 3,000  Level Boston Center
08:07PM 41.7581 -71.2044 51° Northeast 112 129 3,000  Level Boston Center